createdAt,value
2023-01-04T00:01:50.584Z,20.41
2023-01-04T00:04:23.495Z,20.41
2023-01-04T00:06:56.518Z,20.40
2023-01-04T00:09:29.490Z,20.40
2023-01-04T00:12:05.417Z,20.39
2023-01-04T00:14:38.577Z,20.38
2023-01-04T00:17:11.511Z,20.38
2023-01-04T00:19:44.618Z,20.37
2023-01-04T00:22:17.486Z,20.37
2023-01-04T00:24:50.630Z,20.36
2023-01-04T00:27:23.611Z,20.35
2023-01-04T00:29:56.625Z,20.35
2023-01-04T00:32:29.472Z,20.35
2023-01-04T00:35:02.475Z,20.34
2023-01-04T00:37:35.636Z,20.34
2023-01-04T00:40:08.621Z,20.33
2023-01-04T00:42:41.621Z,20.32
2023-01-04T00:45:14.619Z,20.32
2023-01-04T00:47:47.619Z,20.31
2023-01-04T00:50:20.619Z,20.30
2023-01-04T00:52:53.649Z,20.30
2023-01-04T00:55:26.551Z,20.30
2023-01-04T00:57:59.676Z,20.29
2023-01-04T01:00:32.534Z,20.29
2023-01-04T01:03:06.060Z,20.28
2023-01-04T01:05:38.573Z,20.28
2023-01-04T01:08:11.547Z,20.27
2023-01-04T01:10:44.538Z,20.27
2023-01-04T01:13:17.713Z,20.26
2023-01-04T01:15:50.675Z,20.25
2023-01-04T01:18:23.677Z,20.25
2023-01-04T01:20:56.590Z,20.25
2023-01-04T01:23:29.670Z,20.24
2023-01-04T01:26:02.579Z,20.24
2023-01-04T01:28:35.833Z,20.24
2023-01-04T01:31:09.677Z,20.23
2023-01-04T01:33:43.727Z,20.23
2023-01-04T01:36:16.601Z,20.22
2023-01-04T01:38:49.716Z,20.22
2023-01-04T01:41:22.684Z,20.22
2023-01-04T01:43:55.656Z,20.21
2023-01-04T01:46:28.814Z,20.21
2023-01-04T01:49:01.664Z,20.21
2023-01-04T01:51:34.607Z,20.21
2023-01-04T01:54:07.718Z,20.21
2023-01-04T01:56:40.725Z,20.20
2023-01-04T01:59:13.744Z,20.20
2023-01-04T02:01:46.890Z,20.20
2023-01-04T02:04:19.769Z,20.19
2023-01-04T02:06:52.637Z,20.19
2023-01-04T02:09:25.859Z,20.19
2023-01-04T02:11:59.687Z,20.18
2023-01-04T02:14:32.776Z,20.18
2023-01-04T02:17:05.699Z,20.18
2023-01-04T02:19:38.605Z,20.18
2023-01-04T02:22:11.660Z,20.17
2023-01-04T02:24:44.773Z,20.17
2023-01-04T02:27:17.787Z,20.17
2023-01-04T02:29:50.850Z,20.16
2023-01-04T02:32:23.759Z,20.16
2023-01-04T02:34:59.004Z,20.16
2023-01-04T02:37:29.768Z,20.15
2023-01-04T02:40:02.795Z,20.15
2023-01-04T02:42:35.775Z,20.15
2023-01-04T02:45:08.752Z,20.14
2023-01-04T02:47:41.805Z,20.14
2023-01-04T02:50:14.727Z,20.13
2023-01-04T02:52:47.789Z,20.13
2023-01-04T02:55:20.715Z,20.13
2023-01-04T02:57:53.830Z,20.12
2023-01-04T03:00:26.762Z,20.12
2023-01-04T03:03:02.873Z,20.12
2023-01-04T03:05:35.800Z,20.11
2023-01-04T03:08:08.829Z,20.11
2023-01-04T03:10:41.488Z,20.11
2023-01-04T03:13:14.700Z,20.10
2023-01-04T03:15:47.906Z,20.10
2023-01-04T03:18:20.828Z,20.10
2023-01-04T03:20:53.887Z,20.10
2023-01-04T03:23:26.798Z,20.09
2023-01-04T03:25:59.789Z,20.09
2023-01-04T03:28:32.837Z,20.09
2023-01-04T03:31:05.994Z,20.08
2023-01-04T03:33:38.855Z,20.08
2023-01-04T03:36:11.819Z,20.07
2023-01-04T03:38:44.840Z,20.07
2023-01-04T03:41:17.855Z,20.07
2023-01-04T03:43:50.770Z,20.06
2023-01-04T03:46:23.889Z,20.06
2023-01-04T03:48:56.940Z,20.06
2023-01-04T03:51:29.838Z,20.05
2023-01-04T03:54:02.850Z,20.05
2023-01-04T03:56:35.844Z,20.05
2023-01-04T03:59:11.756Z,20.05
2023-01-04T04:01:45.233Z,20.04
2023-01-04T04:04:17.995Z,20.04
2023-01-04T04:06:50.926Z,20.04
2023-01-04T04:09:23.833Z,20.03
2023-01-04T04:11:56.953Z,20.03
2023-01-04T04:14:29.885Z,20.03
2023-01-04T04:17:02.995Z,20.03
2023-01-04T04:19:35.937Z,20.02
2023-01-04T04:22:09.045Z,20.02
2023-01-04T04:24:45.856Z,20.02
2023-01-04T04:27:18.899Z,20.01
2023-01-04T04:29:51.877Z,20.01
2023-01-04T04:32:24.911Z,20.01
2023-01-04T04:34:57.900Z,20.01
2023-01-04T04:37:30.914Z,20.01
2023-01-04T04:40:03.985Z,20.00
2023-01-04T04:42:36.925Z,20.00
2023-01-04T04:45:09.928Z,20.00
2023-01-04T04:47:42.936Z,20.00
2023-01-04T04:50:15.993Z,20.00
2023-01-04T04:52:55.633Z,20.00
2023-01-04T04:55:21.976Z,19.99
2023-01-04T04:57:54.962Z,19.99
2023-01-04T05:00:27.939Z,19.99
2023-01-04T05:03:01.214Z,19.98
2023-01-04T05:05:33.925Z,19.98
2023-01-04T05:08:07.023Z,19.98
2023-01-04T05:10:39.771Z,19.98
2023-01-04T05:13:12.947Z,19.97
2023-01-04T05:15:45.951Z,19.97
2023-01-04T05:18:19.073Z,19.97
2023-01-04T05:20:54.967Z,19.96
2023-01-04T05:23:28.002Z,19.96
2023-01-04T05:26:01.036Z,19.96
2023-01-04T05:28:33.941Z,19.96
2023-01-04T05:31:06.968Z,19.96
2023-01-04T05:33:40.113Z,19.95
2023-01-04T05:36:12.998Z,19.95
2023-01-04T05:38:46.131Z,19.94
2023-01-04T05:41:20.030Z,19.94
2023-01-04T05:43:52.944Z,19.94
2023-01-04T05:46:29.083Z,19.94
2023-01-04T05:49:02.067Z,19.93
2023-01-04T05:51:35.009Z,19.93
2023-01-04T05:54:07.996Z,19.93
2023-01-04T05:56:41.036Z,19.92
2023-01-04T05:59:14.040Z,19.92
2023-01-04T06:01:46.940Z,19.92
2023-01-04T06:04:20.121Z,19.92
2023-01-04T06:06:53.022Z,19.91
2023-01-04T06:09:26.103Z,19.91
2023-01-04T06:11:59.135Z,19.91
2023-01-04T06:14:32.136Z,19.91
2023-01-04T06:17:05.106Z,19.91
2023-01-04T06:19:38.163Z,19.90
2023-01-04T06:22:11.055Z,19.90
2023-01-04T06:24:44.183Z,19.90
2023-01-04T06:27:17.100Z,19.90
2023-01-04T06:29:50.157Z,19.89
2023-01-04T06:32:23.052Z,19.89
2023-01-04T06:34:56.114Z,19.89
2023-01-04T06:37:29.080Z,19.88
2023-01-04T06:40:02.166Z,19.88
2023-01-04T06:42:35.187Z,19.88
2023-01-04T06:45:08.073Z,19.88
2023-01-04T06:47:41.194Z,19.87
2023-01-04T06:50:14.114Z,19.87
2023-01-04T06:52:47.169Z,19.87
2023-01-04T06:55:20.157Z,19.87
2023-01-04T06:57:59.200Z,19.87
2023-01-04T07:00:26.102Z,19.86
2023-01-04T07:03:14.409Z,19.86
2023-01-04T07:05:32.155Z,19.86
2023-01-04T07:08:08.169Z,19.85
2023-01-04T07:10:37.952Z,19.85
2023-01-04T07:13:11.142Z,19.85
2023-01-04T07:15:44.271Z,19.85
2023-01-04T07:18:17.235Z,19.85
2023-01-04T07:20:50.165Z,19.84
2023-01-04T07:23:23.235Z,19.84
2023-01-04T07:25:56.163Z,19.84
2023-01-04T07:28:29.244Z,19.83
2023-01-04T07:31:02.270Z,19.83
2023-01-04T07:33:35.148Z,19.83
2023-01-04T07:36:08.261Z,19.83
2023-01-04T07:38:41.143Z,19.82
2023-01-04T07:41:14.164Z,19.82
2023-01-04T07:43:47.259Z,19.82
2023-01-04T07:46:20.249Z,19.82
2023-01-04T07:48:53.263Z,19.82
2023-01-04T07:51:26.209Z,19.81
2023-01-04T07:53:59.301Z,19.81
2023-01-04T07:56:32.054Z,19.81
2023-01-04T07:59:05.103Z,19.80
2023-01-04T08:01:38.311Z,19.80
2023-01-04T08:04:11.194Z,19.80
2023-01-04T08:06:44.325Z,19.80
2023-01-04T08:09:17.237Z,19.80
2023-01-04T08:11:50.019Z,19.80
2023-01-04T08:14:23.117Z,19.80
2023-01-04T08:16:56.165Z,19.81
2023-01-04T08:19:29.113Z,19.81
2023-01-04T08:22:02.134Z,19.80
2023-01-04T08:24:35.121Z,19.80
2023-01-04T08:27:07.995Z,19.80
2023-01-04T08:29:41.196Z,19.80
2023-01-04T08:32:14.019Z,19.79
2023-01-04T08:34:46.963Z,19.79
2023-01-04T08:37:20.268Z,19.79
2023-01-04T08:39:52.990Z,19.79
2023-01-04T08:42:31.225Z,19.79
2023-01-04T08:44:59.827Z,19.79
2023-01-04T08:47:31.962Z,19.79
2023-01-04T08:50:10.314Z,19.80
2023-01-04T08:52:38.170Z,19.80
2023-01-04T08:55:13.517Z,19.81
2023-01-04T08:57:44.138Z,19.81
2023-01-04T09:00:17.186Z,19.82
2023-01-04T09:02:50.453Z,19.83
2023-01-04T09:05:23.468Z,19.83
2023-01-04T09:07:56.332Z,19.84
2023-01-04T09:10:29.373Z,19.85
2023-01-04T09:13:02.534Z,19.85
2023-01-04T09:15:36.399Z,19.86
2023-01-04T09:18:30.876Z,19.87
2023-01-04T09:20:42.170Z,19.87
2023-01-04T09:23:15.334Z,19.88
2023-01-04T09:25:48.177Z,19.89
2023-01-04T09:28:21.472Z,19.90
2023-01-04T09:34:12.915Z,19.91
2023-01-04T09:36:17.309Z,19.91
2023-01-04T09:38:50.113Z,19.92
2023-01-04T09:41:23.468Z,19.93
2023-01-04T09:43:56.410Z,19.93
2023-01-04T09:46:29.372Z,19.94
2023-01-04T09:49:02.386Z,19.94
2023-01-04T09:51:35.104Z,19.95
2023-01-04T09:54:08.232Z,19.95
2023-01-04T09:56:41.291Z,19.96
2023-01-04T09:59:14.403Z,19.97
2023-01-04T10:01:47.684Z,19.97
2023-01-04T10:04:20.349Z,19.98
2023-01-04T10:06:53.469Z,19.98
2023-01-04T10:09:26.472Z,19.99
2023-01-04T10:11:59.102Z,19.99
2023-01-04T10:14:32.494Z,20.00
2023-01-04T10:17:15.112Z,20.00
2023-01-04T10:22:11.528Z,20.01
2023-01-04T10:24:44.302Z,20.01
2023-01-04T10:27:17.136Z,20.01
2023-01-04T10:29:50.416Z,20.02
2023-01-04T10:32:23.616Z,20.02
2023-01-04T10:34:56.501Z,20.02
2023-01-04T10:37:29.407Z,20.03
2023-01-04T10:40:02.499Z,20.04
2023-01-04T10:42:35.372Z,20.05
2023-01-04T10:45:09.596Z,20.05
2023-01-04T10:47:43.555Z,20.06
2023-01-04T10:50:16.515Z,20.06
2023-01-04T10:52:49.488Z,20.07
2023-01-04T10:55:22.483Z,20.07
2023-01-04T10:57:55.541Z,20.07
2023-01-04T11:00:28.552Z,20.08
2023-01-04T11:03:08.207Z,20.08
2023-01-04T11:05:40.439Z,20.08
2023-01-04T11:08:13.468Z,20.09
2023-01-04T11:10:46.269Z,20.09
2023-01-04T11:13:19.261Z,20.09
2023-01-04T11:15:52.243Z,20.10
2023-01-04T11:18:25.601Z,20.10
2023-01-04T11:20:58.551Z,20.10
2023-01-04T11:23:31.337Z,20.10
2023-01-04T11:26:04.663Z,20.11
2023-01-04T11:28:37.393Z,20.11
2023-01-04T11:31:10.527Z,20.11
2023-01-04T11:33:43.477Z,20.11
2023-01-04T11:36:16.492Z,20.12
2023-01-04T11:38:49.380Z,20.12
2023-01-04T11:41:22.586Z,20.12
2023-01-04T11:43:55.524Z,20.12
2023-01-04T11:46:28.322Z,20.12
2023-01-04T11:49:01.403Z,20.13
2023-01-04T11:51:34.636Z,20.13
2023-01-04T11:54:07.646Z,20.13
2023-01-04T11:56:40.612Z,20.13
2023-01-04T11:59:17.768Z,20.14
2023-01-04T12:01:47.014Z,20.14
2023-01-04T12:04:20.463Z,20.14
2023-01-04T12:06:53.299Z,20.15
2023-01-04T12:09:26.428Z,20.15
2023-01-04T12:11:59.529Z,20.15
2023-01-04T12:14:32.443Z,20.16
2023-01-04T12:17:05.532Z,20.16
2023-01-04T12:19:38.469Z,20.16
2023-01-04T12:22:11.316Z,20.16
2023-01-04T12:24:44.286Z,20.17
2023-01-04T12:27:17.347Z,20.17
2023-01-04T12:29:50.464Z,20.17
2023-01-04T12:32:23.459Z,20.17
2023-01-04T12:34:56.680Z,20.18
2023-01-04T12:37:29.676Z,20.18
2023-01-04T12:40:02.597Z,20.18
2023-01-04T12:42:35.642Z,20.18
2023-01-04T12:45:08.581Z,20.19
2023-01-04T12:47:41.743Z,20.19
2023-01-04T12:50:14.743Z,20.19
2023-01-04T12:53:19.541Z,20.19
2023-01-04T12:55:20.772Z,20.19
2023-01-04T12:57:53.758Z,20.20
2023-01-04T13:00:26.700Z,20.20
2023-01-04T13:02:59.995Z,20.20
2023-01-04T13:05:55.617Z,20.20
2023-01-04T13:08:05.642Z,20.21
2023-01-04T13:10:38.397Z,20.21
2023-01-04T13:13:11.769Z,20.21
2023-01-04T13:15:44.655Z,20.21
2023-01-04T13:18:17.364Z,20.21
2023-01-04T13:20:50.635Z,20.21
2023-01-04T13:23:37.672Z,20.21
2023-01-04T13:26:10.379Z,20.22
2023-01-04T13:28:43.554Z,20.22
2023-01-04T13:31:16.518Z,20.22
2023-01-04T13:33:49.669Z,20.22
2023-01-04T13:36:22.686Z,20.22
2023-01-04T13:38:55.790Z,20.22
2023-01-04T13:41:28.709Z,20.22
2023-01-04T13:44:01.637Z,20.22
2023-01-04T13:46:34.862Z,20.23
2023-01-04T13:49:07.531Z,20.23
2023-01-04T13:51:40.861Z,20.23
2023-01-04T13:54:13.723Z,20.23
2023-01-04T13:56:51.634Z,20.19
2023-01-04T13:59:19.675Z,20.13
2023-01-04T14:01:52.827Z,20.08
2023-01-04T14:04:25.663Z,20.05
2023-01-04T14:06:58.864Z,20.03
2023-01-04T14:09:31.820Z,20.02
2023-01-04T14:12:08.694Z,20.01
2023-01-04T14:14:37.841Z,20.01
2023-01-04T14:17:10.725Z,20.01
2023-01-04T14:19:43.900Z,20.01
2023-01-04T14:22:16.640Z,20.02
2023-01-04T14:27:22.867Z,20.02
2023-01-04T14:29:55.683Z,20.03
2023-01-04T14:32:28.867Z,20.03
2023-01-04T14:35:01.674Z,20.02
2023-01-04T14:37:34.835Z,20.02
2023-01-04T14:40:07.947Z,20.03
2023-01-04T14:42:40.512Z,20.03
2023-01-04T14:45:13.691Z,20.03
2023-01-04T14:47:46.786Z,20.03
2023-01-04T14:50:19.818Z,20.03
2023-01-04T14:52:52.907Z,20.04
2023-01-04T14:55:25.836Z,20.04
2023-01-04T14:57:58.904Z,20.04
2023-01-04T15:00:31.874Z,20.05
2023-01-04T15:03:05.243Z,20.05
2023-01-04T15:05:38.180Z,20.05
2023-01-04T15:08:10.831Z,20.06
2023-01-04T15:10:43.539Z,20.06
2023-01-04T15:13:16.816Z,20.07
2023-01-04T15:15:49.870Z,20.08
2023-01-04T15:18:22.807Z,20.08
2023-01-04T15:20:55.850Z,20.09
2023-01-04T15:23:28.880Z,20.09
2023-01-04T15:26:02.027Z,20.10
2023-01-04T15:28:34.757Z,20.10
2023-01-04T15:31:08.040Z,20.11
2023-01-04T15:33:40.839Z,20.11
2023-01-04T15:36:17.362Z,20.12
2023-01-04T15:38:47.019Z,20.12
2023-01-04T15:41:19.864Z,20.13
2023-01-04T15:43:52.995Z,20.13
2023-01-04T15:46:26.029Z,20.13
2023-01-04T15:48:58.627Z,20.14
2023-01-04T15:51:31.769Z,20.14
2023-01-04T15:54:04.999Z,20.14
2023-01-04T15:56:37.946Z,20.15
2023-01-04T15:59:12.881Z,20.15
2023-01-04T16:01:46.171Z,20.15
2023-01-04T16:04:18.974Z,20.15
2023-01-04T16:06:52.017Z,20.15
2023-01-04T16:09:25.021Z,20.16
2023-01-04T16:11:58.033Z,20.16
2023-01-04T16:14:31.052Z,20.17
2023-01-04T16:17:04.106Z,20.17
2023-01-04T16:19:36.861Z,20.18
2023-01-04T16:22:09.957Z,20.18
2023-01-04T16:25:09.917Z,20.18
2023-01-04T16:27:15.823Z,20.19
2023-01-04T16:29:48.832Z,20.19
2023-01-04T16:32:21.883Z,20.20
2023-01-04T16:34:54.863Z,20.20
2023-01-04T16:37:27.980Z,20.21
2023-01-04T16:40:09.143Z,20.21
2023-01-04T16:42:33.947Z,20.22
2023-01-04T16:45:06.696Z,20.22
2023-01-04T16:47:40.124Z,20.23
2023-01-04T16:50:13.035Z,20.23
2023-01-04T16:52:45.755Z,20.24
2023-01-04T16:55:23.823Z,20.24
2023-01-04T16:57:52.118Z,20.25
2023-01-04T17:00:25.064Z,20.25
2023-01-04T17:02:58.048Z,20.25
2023-01-04T17:05:31.115Z,20.26
2023-01-04T17:08:04.043Z,20.26
2023-01-04T17:10:36.859Z,20.27
2023-01-04T17:13:10.038Z,20.27
2023-01-04T17:15:44.295Z,20.27
2023-01-04T17:18:15.768Z,20.28
2023-01-04T17:20:49.120Z,20.28
2023-01-04T17:23:22.073Z,20.28
2023-01-04T17:25:55.142Z,20.28
2023-01-04T17:28:28.105Z,20.29
2023-01-04T17:31:01.151Z,20.29
2023-01-04T17:33:34.172Z,20.30
2023-01-04T17:36:07.144Z,20.30
2023-01-04T17:38:40.075Z,20.31
2023-01-04T17:41:13.107Z,20.31
2023-01-04T17:43:45.946Z,20.31
2023-01-04T17:46:22.776Z,20.32
2023-01-04T17:49:17.667Z,20.31
2023-01-04T17:51:28.241Z,20.31
2023-01-04T17:54:02.128Z,20.30
2023-01-04T17:56:35.128Z,20.30
2023-01-04T17:59:08.203Z,20.30
2023-01-04T18:01:41.031Z,20.30
2023-01-04T18:04:14.218Z,20.30
2023-01-04T18:06:47.197Z,20.29
2023-01-04T18:09:22.200Z,20.29
2023-01-04T18:11:53.223Z,20.30
2023-01-04T18:14:26.211Z,20.30
2023-01-04T18:16:59.435Z,20.30
2023-01-04T18:19:32.186Z,20.30
2023-01-04T18:22:05.123Z,20.30
2023-01-04T18:24:39.167Z,20.30
2023-01-04T18:27:26.714Z,20.31
2023-01-04T18:29:44.242Z,20.31
2023-01-04T18:32:16.831Z,20.31
2023-01-04T18:34:50.186Z,20.31
2023-01-04T18:37:23.140Z,20.32
2023-01-04T18:39:56.141Z,20.32
2023-01-04T18:42:29.137Z,20.32
2023-01-04T18:45:02.140Z,20.33
2023-01-04T18:47:35.129Z,20.33
2023-01-04T18:50:08.294Z,20.33
2023-01-04T18:52:41.176Z,20.33
2023-01-04T18:55:14.261Z,20.33
2023-01-04T18:57:46.922Z,20.34
2023-01-04T19:00:20.205Z,20.34
2023-01-04T19:02:52.970Z,20.34
2023-01-04T19:05:26.079Z,20.35
2023-01-04T19:07:59.296Z,20.35
2023-01-04T19:10:32.286Z,20.35
2023-01-04T19:13:05.065Z,20.36
2023-01-04T19:15:41.307Z,20.36
2023-01-04T19:18:11.208Z,20.36
2023-01-04T19:20:44.043Z,20.37
2023-01-04T19:23:17.016Z,20.37
2023-01-04T19:25:50.041Z,20.37
2023-01-04T19:28:23.049Z,20.38
2023-01-04T19:30:55.982Z,20.38
2023-01-04T19:33:29.104Z,20.38
2023-01-04T19:36:02.100Z,20.38
2023-01-04T19:38:34.929Z,20.39
2023-01-04T19:41:07.940Z,20.39
2023-01-04T19:43:41.308Z,20.39
2023-01-04T19:46:14.110Z,20.39
2023-01-04T19:48:47.071Z,20.40
2023-01-04T19:51:19.998Z,20.40
2023-01-04T19:53:53.334Z,20.40
2023-01-04T19:56:26.073Z,20.40
2023-01-04T19:58:59.096Z,20.41
2023-01-04T20:01:32.261Z,20.41
2023-01-04T20:04:05.045Z,20.41
2023-01-04T20:06:38.245Z,20.41
2023-01-04T20:09:11.357Z,20.41
2023-01-04T20:11:46.928Z,20.42
2023-01-04T20:14:20.107Z,20.42
2023-01-04T20:16:53.061Z,20.42
2023-01-04T20:19:26.224Z,20.42
2023-01-04T20:21:59.157Z,20.42
2023-01-04T20:24:32.346Z,20.42
2023-01-04T20:27:05.028Z,20.42
2023-01-04T20:29:38.097Z,20.42
2023-01-04T20:32:11.325Z,20.42
2023-01-04T20:34:44.213Z,20.43
2023-01-04T20:37:17.107Z,20.43
2023-01-04T20:39:50.358Z,20.43
2023-01-04T20:42:23.144Z,20.43
2023-01-04T20:44:56.248Z,20.43
2023-01-04T20:47:29.069Z,20.43
2023-01-04T20:50:02.206Z,20.43
2023-01-04T20:52:35.190Z,20.43
2023-01-04T20:55:12.576Z,20.43
2023-01-04T20:57:41.248Z,20.43
2023-01-04T21:00:14.341Z,20.43
2023-01-04T21:02:47.355Z,20.43
2023-01-04T21:05:20.143Z,20.42
2023-01-04T21:07:53.326Z,20.42
2023-01-04T21:10:26.457Z,20.43
2023-01-04T21:12:59.219Z,20.43
2023-01-04T21:15:32.287Z,20.43
2023-01-04T21:18:05.304Z,20.43
2023-01-04T21:20:38.273Z,20.43
2023-01-04T21:23:11.138Z,20.42
2023-01-04T21:25:44.379Z,20.42
2023-01-04T21:28:17.214Z,20.42
2023-01-04T21:30:50.293Z,20.41
2023-01-04T21:33:23.185Z,20.41
2023-01-04T21:35:56.208Z,20.41
2023-01-04T21:38:29.442Z,20.41
2023-01-04T21:41:02.394Z,20.40
2023-01-04T21:43:35.297Z,20.40
2023-01-04T21:46:08.394Z,20.40
2023-01-04T21:48:55.241Z,20.40
2023-01-04T21:51:28.144Z,20.41
2023-01-04T21:54:01.284Z,20.41
2023-01-04T21:56:34.352Z,20.41
2023-01-04T21:59:07.418Z,20.41
2023-01-04T22:01:40.640Z,20.41
2023-01-04T22:04:13.205Z,20.41
2023-01-04T22:06:46.367Z,20.42
2023-01-04T22:09:19.364Z,20.42
2023-01-04T22:11:52.567Z,20.42
2023-01-04T22:14:25.571Z,20.42
2023-01-04T22:16:58.388Z,20.42
2023-01-04T22:19:31.217Z,20.42
2023-01-04T22:22:04.583Z,20.43
2023-01-04T22:24:38.397Z,20.43
2023-01-04T22:27:10.480Z,20.43
2023-01-04T22:29:43.486Z,20.43
2023-01-04T22:32:16.487Z,20.44
2023-01-04T22:34:49.576Z,20.44
2023-01-04T22:37:22.335Z,20.45
2023-01-04T22:39:55.645Z,20.45
2023-01-04T22:42:28.234Z,20.45
2023-01-04T22:45:01.369Z,20.45
2023-01-04T22:47:34.622Z,20.46
2023-01-04T22:50:07.600Z,20.46
2023-01-04T22:52:42.674Z,20.46
2023-01-04T22:55:13.579Z,20.47
2023-01-04T22:57:46.648Z,20.47
2023-01-04T23:00:19.529Z,20.47
2023-01-04T23:02:52.697Z,20.48
2023-01-04T23:05:25.612Z,20.47
2023-01-04T23:07:58.545Z,20.47
2023-01-04T23:10:31.678Z,20.47
2023-01-04T23:13:04.570Z,20.48
2023-01-04T23:15:37.693Z,20.48
2023-01-04T23:18:10.632Z,20.49
2023-01-04T23:20:43.510Z,20.49
2023-01-04T23:23:16.685Z,20.50
2023-01-04T23:25:49.707Z,20.50
2023-01-04T23:28:22.687Z,20.51
2023-01-04T23:30:55.664Z,20.51
2023-01-04T23:33:33.986Z,20.51
2023-01-04T23:36:01.661Z,20.51
2023-01-04T23:38:34.654Z,20.51
2023-01-04T23:41:07.327Z,20.51
2023-01-04T23:43:40.684Z,20.51
2023-01-04T23:46:13.857Z,20.51
2023-01-04T23:48:46.699Z,20.50
2023-01-04T23:51:19.605Z,20.50
2023-01-04T23:53:52.691Z,20.50
2023-01-04T23:56:25.690Z,20.50
2023-01-04T23:58:58.611Z,20.50
